sensor_id;sensor_type;location;lat;lon;timestamp;P1;durP1;ratioP1;P2;durP2;ratioP2
15915;SDS011;8057;47.830;-3.870;2023-05-29T00:01:29;11.87;;;7.30;;
15915;SDS011;8057;47.830;-3.870;2023-05-29T00:05:38;15.23;;;7.80;;
15915;SDS011;8057;47.830;-3.870;2023-05-29T00:09:47;13.70;;;8.17;;
15915;SDS011;8057;47.830;-3.870;2023-05-29T00:13:57;14.83;;;7.67;;
15915;SDS011;8057;47.830;-3.870;2023-05-29T00:18:07;16.17;;;8.60;;
15915;SDS011;8057;47.830;-3.870;2023-05-29T00:22:16;14.20;;;7.60;;
15915;SDS011;8057;47.830;-3.870;2023-05-29T00:26:26;12.90;;;7.80;;
15915;SDS011;8057;47.830;-3.870;2023-05-29T00:30:35;13.10;;;7.20;;
15915;SDS011;8057;47.830;-3.870;2023-05-29T00:34:45;17.27;;;8.77;;
15915;SDS011;8057;47.830;-3.870;2023-05-29T00:38:55;15.83;;;8.13;;
15915;SDS011;8057;47.830;-3.870;2023-05-29T00:43:04;15.47;;;8.40;;
15915;SDS011;8057;47.830;-3.870;2023-05-29T00:47:13;18.77;;;8.63;;
15915;SDS011;8057;47.830;-3.870;2023-05-29T00:51:24;16.87;;;7.90;;
15915;SDS011;8057;47.830;-3.870;2023-05-29T00:55:35;16.33;;;8.67;;
15915;SDS011;8057;47.830;-3.870;2023-05-29T00:59:44;13.50;;;7.70;;
15915;SDS011;8057;47.830;-3.870;2023-05-29T01:03:55;13.10;;;8.10;;
15915;SDS011;8057;47.830;-3.870;2023-05-29T01:08:07;15.27;;;8.27;;
15915;SDS011;8057;47.830;-3.870;2023-05-29T01:12:22;14.93;;;7.73;;
15915;SDS011;8057;47.830;-3.870;2023-05-29T01:16:41;16.10;;;8.87;;
15915;SDS011;8057;47.830;-3.870;2023-05-29T01:21:01;14.83;;;8.90;;
15915;SDS011;8057;47.830;-3.870;2023-05-29T01:25:19;16.17;;;8.57;;
15915;SDS011;8057;47.830;-3.870;2023-05-29T01:29:34;12.10;;;8.00;;
15915;SDS011;8057;47.830;-3.870;2023-05-29T01:33:51;17.33;;;7.80;;
15915;SDS011;8057;47.830;-3.870;2023-05-29T01:38:01;15.60;;;8.83;;
15915;SDS011;8057;47.830;-3.870;2023-05-29T01:42:10;12.63;;;8.27;;
15915;SDS011;8057;47.830;-3.870;2023-05-29T01:46:21;16.43;;;8.37;;
15915;SDS011;8057;47.830;-3.870;2023-05-29T01:50:32;15.10;;;8.50;;
15915;SDS011;8057;47.830;-3.870;2023-05-29T01:54:42;14.13;;;8.10;;
15915;SDS011;8057;47.830;-3.870;2023-05-29T01:58:51;16.10;;;7.97;;
15915;SDS011;8057;47.830;-3.870;2023-05-29T02:03:03;16.20;;;9.13;;
15915;SDS011;8057;47.830;-3.870;2023-05-29T02:07:12;17.17;;;8.63;;
15915;SDS011;8057;47.830;-3.870;2023-05-29T02:11:22;20.23;;;8.47;;
15915;SDS011;8057;47.830;-3.870;2023-05-29T02:15:32;13.53;;;8.00;;
15915;SDS011;8057;47.830;-3.870;2023-05-29T02:19:43;17.57;;;8.50;;
15915;SDS011;8057;47.830;-3.870;2023-05-29T02:23:53;17.80;;;8.40;;
15915;SDS011;8057;47.830;-3.870;2023-05-29T02:28:02;13.33;;;8.23;;
15915;SDS011;8057;47.830;-3.870;2023-05-29T02:32:11;16.47;;;8.67;;
15915;SDS011;8057;47.830;-3.870;2023-05-29T02:36:22;17.07;;;8.37;;
15915;SDS011;8057;47.830;-3.870;2023-05-29T02:40:31;17.33;;;8.93;;
15915;SDS011;8057;47.830;-3.870;2023-05-29T02:44:40;13.93;;;8.50;;
15915;SDS011;8057;47.830;-3.870;2023-05-29T02:48:49;16.87;;;8.93;;
15915;SDS011;8057;47.830;-3.870;2023-05-29T02:53:00;13.83;;;8.57;;
15915;SDS011;8057;47.830;-3.870;2023-05-29T02:57:09;15.40;;;8.87;;
15915;SDS011;8057;47.830;-3.870;2023-05-29T03:01:18;14.23;;;8.50;;
15915;SDS011;8057;47.830;-3.870;2023-05-29T03:05:27;15.00;;;8.23;;
15915;SDS011;8057;47.830;-3.870;2023-05-29T03:09:38;17.03;;;8.90;;
15915;SDS011;8057;47.830;-3.870;2023-05-29T03:13:47;14.90;;;8.57;;
15915;SDS011;8057;47.830;-3.870;2023-05-29T03:17:56;14.90;;;8.90;;
15915;SDS011;8057;47.830;-3.870;2023-05-29T03:22:05;19.73;;;9.10;;
15915;SDS011;8057;47.830;-3.870;2023-05-29T03:26:16;17.73;;;8.73;;
15915;SDS011;8057;47.830;-3.870;2023-05-29T03:30:25;14.90;;;8.80;;
15915;SDS011;8057;47.830;-3.870;2023-05-29T03:34:34;21.07;;;9.93;;
15915;SDS011;8057;47.830;-3.870;2023-05-29T03:38:43;15.87;;;9.77;;
15915;SDS011;8057;47.830;-3.870;2023-05-29T03:42:54;16.13;;;8.67;;
15915;SDS011;8057;47.830;-3.870;2023-05-29T03:47:03;17.50;;;9.07;;
15915;SDS011;8057;47.830;-3.870;2023-05-29T03:51:13;15.30;;;9.57;;
15915;SDS011;8057;47.830;-3.870;2023-05-29T03:55:22;17.47;;;9.40;;
15915;SDS011;8057;47.830;-3.870;2023-05-29T03:59:32;17.27;;;9.07;;
15915;SDS011;8057;47.830;-3.870;2023-05-29T04:03:42;18.30;;;10.00;;
15915;SDS011;8057;47.830;-3.870;2023-05-29T04:07:52;18.07;;;10.07;;
15915;SDS011;8057;47.830;-3.870;2023-05-29T04:12:13;21.73;;;11.00;;
15915;SDS011;8057;47.830;-3.870;2023-05-29T04:16:24;16.13;;;9.63;;
15915;SDS011;8057;47.830;-3.870;2023-05-29T04:20:34;22.23;;;10.20;;
15915;SDS011;8057;47.830;-3.870;2023-05-29T04:24:43;25.37;;;11.33;;
15915;SDS011;8057;47.830;-3.870;2023-05-29T04:28:52;17.70;;;9.50;;
15915;SDS011;8057;47.830;-3.870;2023-05-29T04:33:05;20.70;;;11.07;;
15915;SDS011;8057;47.830;-3.870;2023-05-29T04:37:16;17.57;;;9.67;;
15915;SDS011;8057;47.830;-3.870;2023-05-29T04:41:25;21.50;;;10.23;;
15915;SDS011;8057;47.830;-3.870;2023-05-29T04:45:38;20.17;;;10.27;;
15915;SDS011;8057;47.830;-3.870;2023-05-29T04:49:50;20.30;;;10.43;;
15915;SDS011;8057;47.830;-3.870;2023-05-29T04:53:59;22.67;;;11.37;;
15915;SDS011;8057;47.830;-3.870;2023-05-29T04:58:08;21.90;;;11.80;;
15915;SDS011;8057;47.830;-3.870;2023-05-29T05:02:19;20.17;;;10.97;;
15915;SDS011;8057;47.830;-3.870;2023-05-29T05:06:29;19.77;;;10.43;;
15915;SDS011;8057;47.830;-3.870;2023-05-29T05:10:38;24.87;;;12.43;;
15915;SDS011;8057;47.830;-3.870;2023-05-29T05:14:47;21.77;;;12.50;;
15915;SDS011;8057;47.830;-3.870;2023-05-29T05:18:57;24.10;;;13.50;;
15915;SDS011;8057;47.830;-3.870;2023-05-29T05:23:07;23.30;;;12.67;;
15915;SDS011;8057;47.830;-3.870;2023-05-29T05:27:17;23.83;;;11.97;;
15915;SDS011;8057;47.830;-3.870;2023-05-29T05:31:26;24.43;;;12.83;;
15915;SDS011;8057;47.830;-3.870;2023-05-29T05:35:35;23.47;;;12.77;;
15915;SDS011;8057;47.830;-3.870;2023-05-29T05:39:46;24.23;;;13.00;;
15915;SDS011;8057;47.830;-3.870;2023-05-29T05:43:55;26.23;;;13.83;;
15915;SDS011;8057;47.830;-3.870;2023-05-29T05:48:04;23.53;;;14.20;;
15915;SDS011;8057;47.830;-3.870;2023-05-29T05:52:14;23.60;;;13.13;;
15915;SDS011;8057;47.830;-3.870;2023-05-29T05:56:24;23.17;;;13.30;;
15915;SDS011;8057;47.830;-3.870;2023-05-29T06:00:34;24.00;;;12.60;;
15915;SDS011;8057;47.830;-3.870;2023-05-29T06:04:43;21.57;;;13.07;;
15915;SDS011;8057;47.830;-3.870;2023-05-29T06:08:52;22.97;;;14.10;;
15915;SDS011;8057;47.830;-3.870;2023-05-29T06:13:04;24.13;;;13.83;;
15915;SDS011;8057;47.830;-3.870;2023-05-29T06:17:13;21.27;;;12.67;;
15915;SDS011;8057;47.830;-3.870;2023-05-29T06:21:22;20.40;;;12.43;;
15915;SDS011;8057;47.830;-3.870;2023-05-29T06:25:32;24.60;;;12.73;;
15915;SDS011;8057;47.830;-3.870;2023-05-29T06:29:42;23.07;;;12.07;;
15915;SDS011;8057;47.830;-3.870;2023-05-29T06:33:51;21.70;;;12.70;;
15915;SDS011;8057;47.830;-3.870;2023-05-29T06:38:01;18.53;;;11.97;;
15915;SDS011;8057;47.830;-3.870;2023-05-29T06:42:10;23.10;;;11.80;;
15915;SDS011;8057;47.830;-3.870;2023-05-29T06:46:21;24.03;;;13.10;;
15915;SDS011;8057;47.830;-3.870;2023-05-29T06:50:30;18.60;;;11.00;;
15915;SDS011;8057;47.830;-3.870;2023-05-29T06:54:40;21.17;;;11.93;;
15915;SDS011;8057;47.830;-3.870;2023-05-29T06:58:49;20.70;;;11.37;;
15915;SDS011;8057;47.830;-3.870;2023-05-29T07:03:00;19.13;;;10.90;;
15915;SDS011;8057;47.830;-3.870;2023-05-29T07:07:09;16.37;;;9.23;;
15915;SDS011;8057;47.830;-3.870;2023-05-29T07:11:19;19.33;;;11.20;;
15915;SDS011;8057;47.830;-3.870;2023-05-29T07:15:28;20.40;;;10.60;;
15915;SDS011;8057;47.830;-3.870;2023-05-29T07:19:38;17.97;;;10.93;;
15915;SDS011;8057;47.830;-3.870;2023-05-29T07:23:47;20.97;;;10.40;;
15915;SDS011;8057;47.830;-3.870;2023-05-29T07:27:57;19.33;;;9.87;;
15915;SDS011;8057;47.830;-3.870;2023-05-29T07:37:17;19.77;;;10.13;;
15915;SDS011;8057;47.830;-3.870;2023-05-29T07:41:26;21.13;;;9.83;;
15915;SDS011;8057;47.830;-3.870;2023-05-29T07:45:35;15.20;;;9.03;;
15915;SDS011;8057;47.830;-3.870;2023-05-29T07:49:45;19.20;;;9.60;;
15915;SDS011;8057;47.830;-3.870;2023-05-29T07:53:55;17.30;;;8.40;;
15915;SDS011;8057;47.830;-3.870;2023-05-29T07:58:05;17.40;;;9.10;;
15915;SDS011;8057;47.830;-3.870;2023-05-29T08:02:19;15.40;;;7.77;;
15915;SDS011;8057;47.830;-3.870;2023-05-29T08:06:28;17.10;;;9.00;;
15915;SDS011;8057;47.830;-3.870;2023-05-29T08:10:40;18.53;;;8.73;;
15915;SDS011;8057;47.830;-3.870;2023-05-29T08:14:50;17.17;;;8.13;;
15915;SDS011;8057;47.830;-3.870;2023-05-29T08:18:59;17.63;;;8.77;;
15915;SDS011;8057;47.830;-3.870;2023-05-29T08:23:09;20.47;;;8.27;;
15915;SDS011;8057;47.830;-3.870;2023-05-29T08:27:19;14.33;;;7.53;;
15915;SDS011;8057;47.830;-3.870;2023-05-29T08:31:29;18.43;;;7.57;;
15915;SDS011;8057;47.830;-3.870;2023-05-29T08:35:38;17.57;;;8.37;;
15915;SDS011;8057;47.830;-3.870;2023-05-29T08:39:48;18.10;;;7.20;;
15915;SDS011;8057;47.830;-3.870;2023-05-29T08:43:58;16.00;;;7.67;;
15915;SDS011;8057;47.830;-3.870;2023-05-29T08:48:11;14.07;;;7.23;;
15915;SDS011;8057;47.830;-3.870;2023-05-29T08:52:22;16.17;;;7.47;;
15915;SDS011;8057;47.830;-3.870;2023-05-29T08:56:33;15.20;;;8.43;;
15915;SDS011;8057;47.830;-3.870;2023-05-29T09:00:45;15.27;;;7.00;;
15915;SDS011;8057;47.830;-3.870;2023-05-29T09:04:55;17.10;;;7.40;;
15915;SDS011;8057;47.830;-3.870;2023-05-29T09:09:05;16.43;;;6.83;;
15915;SDS011;8057;47.830;-3.870;2023-05-29T09:13:14;13.60;;;6.83;;
15915;SDS011;8057;47.830;-3.870;2023-05-29T09:17:29;17.10;;;8.30;;
15915;SDS011;8057;47.830;-3.870;2023-05-29T09:21:40;14.57;;;6.97;;
15915;SDS011;8057;47.830;-3.870;2023-05-29T09:25:51;18.90;;;8.10;;
15915;SDS011;8057;47.830;-3.870;2023-05-29T09:30:01;15.80;;;7.10;;
15915;SDS011;8057;47.830;-3.870;2023-05-29T09:34:11;17.53;;;8.07;;
15915;SDS011;8057;47.830;-3.870;2023-05-29T09:38:21;14.90;;;7.50;;
15915;SDS011;8057;47.830;-3.870;2023-05-29T09:42:50;19.40;;;7.60;;
15915;SDS011;8057;47.830;-3.870;2023-05-29T09:46:59;17.20;;;8.20;;
15915;SDS011;8057;47.830;-3.870;2023-05-29T09:51:12;16.93;;;6.70;;
15915;SDS011;8057;47.830;-3.870;2023-05-29T09:55:28;16.83;;;7.17;;
15915;SDS011;8057;47.830;-3.870;2023-05-29T09:59:40;15.40;;;6.63;;
15915;SDS011;8057;47.830;-3.870;2023-05-29T10:03:53;15.97;;;7.47;;
15915;SDS011;8057;47.830;-3.870;2023-05-29T10:08:04;13.33;;;6.57;;
15915;SDS011;8057;47.830;-3.870;2023-05-29T10:12:16;16.00;;;7.00;;
15915;SDS011;8057;47.830;-3.870;2023-05-29T10:16:28;14.23;;;7.37;;
15915;SDS011;8057;47.830;-3.870;2023-05-29T10:20:42;15.20;;;7.13;;
15915;SDS011;8057;47.830;-3.870;2023-05-29T10:24:54;16.40;;;7.57;;
15915;SDS011;8057;47.830;-3.870;2023-05-29T10:29:08;14.53;;;7.30;;
15915;SDS011;8057;47.830;-3.870;2023-05-29T10:33:31;16.73;;;7.83;;
15915;SDS011;8057;47.830;-3.870;2023-05-29T10:37:50;16.77;;;7.57;;
15915;SDS011;8057;47.830;-3.870;2023-05-29T10:42:08;15.47;;;8.00;;
15915;SDS011;8057;47.830;-3.870;2023-05-29T10:47:06;16.03;;;7.30;;
15915;SDS011;8057;47.830;-3.870;2023-05-29T10:51:24;16.13;;;7.80;;
15915;SDS011;8057;47.830;-3.870;2023-05-29T10:55:35;15.83;;;7.27;;
15915;SDS011;8057;47.830;-3.870;2023-05-29T10:59:46;15.20;;;7.27;;
15915;SDS011;8057;47.830;-3.870;2023-05-29T11:08:42;17.33;;;7.03;;
15915;SDS011;8057;47.830;-3.870;2023-05-29T11:12:56;16.87;;;8.03;;
15915;SDS011;8057;47.830;-3.870;2023-05-29T11:17:08;16.40;;;6.40;;
15915;SDS011;8057;47.830;-3.870;2023-05-29T11:21:49;12.13;;;7.17;;
15915;SDS011;8057;47.830;-3.870;2023-05-29T11:26:08;10.83;;;5.90;;
15915;SDS011;8057;47.830;-3.870;2023-05-29T11:30:17;11.70;;;6.60;;
15915;SDS011;8057;47.830;-3.870;2023-05-29T11:34:34;13.33;;;6.47;;
15915;SDS011;8057;47.830;-3.870;2023-05-29T11:38:48;10.23;;;6.50;;
15915;SDS011;8057;47.830;-3.870;2023-05-29T11:43:00;12.30;;;6.87;;
15915;SDS011;8057;47.830;-3.870;2023-05-29T11:47:09;11.97;;;6.03;;
15915;SDS011;8057;47.830;-3.870;2023-05-29T11:51:20;15.63;;;6.80;;
15915;SDS011;8057;47.830;-3.870;2023-05-29T11:55:29;13.57;;;6.80;;
15915;SDS011;8057;47.830;-3.870;2023-05-29T11:59:38;11.93;;;5.67;;
15915;SDS011;8057;47.830;-3.870;2023-05-29T12:03:48;10.50;;;5.93;;
15915;SDS011;8057;47.830;-3.870;2023-05-29T12:07:59;11.37;;;6.20;;
15915;SDS011;8057;47.830;-3.870;2023-05-29T12:12:11;14.47;;;6.53;;
15915;SDS011;8057;47.830;-3.870;2023-05-29T12:16:20;10.97;;;6.60;;
15915;SDS011;8057;47.830;-3.870;2023-05-29T12:20:29;9.57;;;5.97;;
15915;SDS011;8057;47.830;-3.870;2023-05-29T12:24:40;10.83;;;5.83;;
15915;SDS011;8057;47.830;-3.870;2023-05-29T12:28:50;11.47;;;5.60;;
15915;SDS011;8057;47.830;-3.870;2023-05-29T12:33:32;10.70;;;5.70;;
15915;SDS011;8057;47.830;-3.870;2023-05-29T12:37:42;10.63;;;5.97;;
15915;SDS011;8057;47.830;-3.870;2023-05-29T12:41:58;9.80;;;5.70;;
15915;SDS011;8057;47.830;-3.870;2023-05-29T12:46:07;10.33;;;5.10;;
15915;SDS011;8057;47.830;-3.870;2023-05-29T12:50:21;12.43;;;6.60;;
15915;SDS011;8057;47.830;-3.870;2023-05-29T12:54:31;14.13;;;5.90;;
15915;SDS011;8057;47.830;-3.870;2023-05-29T12:58:42;11.43;;;6.30;;
15915;SDS011;8057;47.830;-3.870;2023-05-29T13:02:51;10.17;;;5.40;;
15915;SDS011;8057;47.830;-3.870;2023-05-29T13:07:00;12.00;;;6.10;;
15915;SDS011;8057;47.830;-3.870;2023-05-29T13:11:09;13.13;;;6.67;;
15915;SDS011;8057;47.830;-3.870;2023-05-29T13:15:21;9.37;;;5.80;;
15915;SDS011;8057;47.830;-3.870;2023-05-29T13:19:30;12.50;;;5.47;;
15915;SDS011;8057;47.830;-3.870;2023-05-29T13:23:39;11.70;;;6.23;;
15915;SDS011;8057;47.830;-3.870;2023-05-29T13:27:49;11.43;;;6.00;;
15915;SDS011;8057;47.830;-3.870;2023-05-29T13:31:59;11.83;;;5.93;;
15915;SDS011;8057;47.830;-3.870;2023-05-29T13:36:08;11.30;;;6.00;;
15915;SDS011;8057;47.830;-3.870;2023-05-29T13:40:18;11.77;;;5.53;;
15915;SDS011;8057;47.830;-3.870;2023-05-29T13:44:27;9.43;;;5.37;;
15915;SDS011;8057;47.830;-3.870;2023-05-29T13:48:37;9.93;;;6.13;;
15915;SDS011;8057;47.830;-3.870;2023-05-29T13:52:46;12.47;;;6.00;;
15915;SDS011;8057;47.830;-3.870;2023-05-29T13:56:56;11.37;;;5.90;;
15915;SDS011;8057;47.830;-3.870;2023-05-29T14:01:05;12.17;;;5.93;;
15915;SDS011;8057;47.830;-3.870;2023-05-29T14:05:16;10.30;;;5.77;;
15915;SDS011;8057;47.830;-3.870;2023-05-29T14:09:25;15.47;;;6.77;;
15915;SDS011;8057;47.830;-3.870;2023-05-29T14:13:37;8.90;;;5.50;;
15915;SDS011;8057;47.830;-3.870;2023-05-29T14:17:46;10.40;;;5.67;;
15915;SDS011;8057;47.830;-3.870;2023-05-29T14:21:57;12.17;;;5.97;;
15915;SDS011;8057;47.830;-3.870;2023-05-29T14:26:06;10.97;;;6.10;;
15915;SDS011;8057;47.830;-3.870;2023-05-29T14:30:15;12.47;;;6.33;;
15915;SDS011;8057;47.830;-3.870;2023-05-29T14:34:24;12.40;;;6.23;;
15915;SDS011;8057;47.830;-3.870;2023-05-29T14:38:35;10.53;;;5.60;;
15915;SDS011;8057;47.830;-3.870;2023-05-29T14:42:44;13.27;;;5.70;;
15915;SDS011;8057;47.830;-3.870;2023-05-29T14:46:55;13.03;;;6.17;;
15915;SDS011;8057;47.830;-3.870;2023-05-29T14:51:04;12.53;;;5.83;;
15915;SDS011;8057;47.830;-3.870;2023-05-29T14:55:16;11.23;;;5.53;;
15915;SDS011;8057;47.830;-3.870;2023-05-29T14:59:25;13.47;;;5.83;;
15915;SDS011;8057;47.830;-3.870;2023-05-29T15:03:34;11.13;;;5.83;;
15915;SDS011;8057;47.830;-3.870;2023-05-29T15:07:43;9.93;;;6.10;;
15915;SDS011;8057;47.830;-3.870;2023-05-29T15:11:54;14.27;;;5.70;;
15915;SDS011;8057;47.830;-3.870;2023-05-29T15:16:03;11.27;;;6.33;;
15915;SDS011;8057;47.830;-3.870;2023-05-29T15:20:13;11.13;;;5.80;;
15915;SDS011;8057;47.830;-3.870;2023-05-29T15:24:24;12.20;;;6.10;;
15915;SDS011;8057;47.830;-3.870;2023-05-29T15:28:35;13.43;;;5.90;;
15915;SDS011;8057;47.830;-3.870;2023-05-29T15:32:44;10.97;;;5.90;;
15915;SDS011;8057;47.830;-3.870;2023-05-29T15:36:53;12.97;;;6.10;;
15915;SDS011;8057;47.830;-3.870;2023-05-29T15:41:03;13.17;;;6.53;;
15915;SDS011;8057;47.830;-3.870;2023-05-29T15:45:16;11.20;;;6.43;;
15915;SDS011;8057;47.830;-3.870;2023-05-29T15:49:26;11.60;;;5.70;;
15915;SDS011;8057;47.830;-3.870;2023-05-29T15:53:35;16.63;;;6.63;;
15915;SDS011;8057;47.830;-3.870;2023-05-29T15:57:44;15.53;;;6.63;;
15915;SDS011;8057;47.830;-3.870;2023-05-29T16:01:56;15.73;;;6.60;;
15915;SDS011;8057;47.830;-3.870;2023-05-29T16:06:05;11.43;;;6.17;;
15915;SDS011;8057;47.830;-3.870;2023-05-29T16:10:14;13.93;;;6.97;;
15915;SDS011;8057;47.830;-3.870;2023-05-29T16:14:24;14.80;;;6.57;;
15915;SDS011;8057;47.830;-3.870;2023-05-29T16:18:35;12.37;;;7.00;;
15915;SDS011;8057;47.830;-3.870;2023-05-29T16:22:45;12.50;;;6.57;;
15915;SDS011;8057;47.830;-3.870;2023-05-29T16:26:54;12.90;;;6.83;;
15915;SDS011;8057;47.830;-3.870;2023-05-29T16:31:03;12.87;;;6.13;;
15915;SDS011;8057;47.830;-3.870;2023-05-29T16:35:14;14.40;;;6.93;;
15915;SDS011;8057;47.830;-3.870;2023-05-29T16:39:24;15.87;;;6.53;;
15915;SDS011;8057;47.830;-3.870;2023-05-29T16:43:37;12.70;;;6.40;;
15915;SDS011;8057;47.830;-3.870;2023-05-29T16:47:46;12.83;;;5.90;;
15915;SDS011;8057;47.830;-3.870;2023-05-29T16:51:57;15.57;;;6.73;;
15915;SDS011;8057;47.830;-3.870;2023-05-29T16:56:06;15.77;;;6.30;;
15915;SDS011;8057;47.830;-3.870;2023-05-29T17:00:16;11.60;;;6.43;;
15915;SDS011;8057;47.830;-3.870;2023-05-29T17:04:26;14.13;;;6.57;;
15915;SDS011;8057;47.830;-3.870;2023-05-29T17:08:36;13.60;;;7.20;;
15915;SDS011;8057;47.830;-3.870;2023-05-29T17:12:45;12.17;;;6.43;;
15915;SDS011;8057;47.830;-3.870;2023-05-29T17:16:55;13.00;;;6.90;;
15915;SDS011;8057;47.830;-3.870;2023-05-29T17:21:04;11.40;;;6.97;;
15915;SDS011;8057;47.830;-3.870;2023-05-29T17:25:14;12.57;;;6.40;;
15915;SDS011;8057;47.830;-3.870;2023-05-29T17:29:23;14.20;;;6.27;;
15915;SDS011;8057;47.830;-3.870;2023-05-29T17:33:32;14.70;;;6.27;;
15915;SDS011;8057;47.830;-3.870;2023-05-29T17:37:42;15.17;;;7.17;;
15915;SDS011;8057;47.830;-3.870;2023-05-29T17:41:53;14.90;;;6.10;;
15915;SDS011;8057;47.830;-3.870;2023-05-29T17:46:01;12.60;;;6.10;;
15915;SDS011;8057;47.830;-3.870;2023-05-29T17:50:11;16.73;;;6.47;;
15915;SDS011;8057;47.830;-3.870;2023-05-29T17:54:20;14.00;;;6.07;;
15915;SDS011;8057;47.830;-3.870;2023-05-29T17:58:32;13.27;;;5.90;;
15915;SDS011;8057;47.830;-3.870;2023-05-29T18:02:41;12.30;;;6.23;;
15915;SDS011;8057;47.830;-3.870;2023-05-29T18:06:50;15.97;;;6.77;;
15915;SDS011;8057;47.830;-3.870;2023-05-29T18:10:59;13.10;;;5.10;;
15915;SDS011;8057;47.830;-3.870;2023-05-29T18:15:10;15.50;;;5.83;;
15915;SDS011;8057;47.830;-3.870;2023-05-29T18:19:20;14.83;;;5.93;;
15915;SDS011;8057;47.830;-3.870;2023-05-29T18:23:30;14.33;;;6.07;;
15915;SDS011;8057;47.830;-3.870;2023-05-29T18:27:39;16.67;;;6.17;;
15915;SDS011;8057;47.830;-3.870;2023-05-29T18:31:50;13.60;;;5.97;;
15915;SDS011;8057;47.830;-3.870;2023-05-29T18:35:59;15.77;;;6.80;;
15915;SDS011;8057;47.830;-3.870;2023-05-29T18:40:09;15.10;;;6.63;;
15915;SDS011;8057;47.830;-3.870;2023-05-29T18:44:19;11.87;;;6.13;;
15915;SDS011;8057;47.830;-3.870;2023-05-29T18:48:29;16.07;;;6.03;;
15915;SDS011;8057;47.830;-3.870;2023-05-29T18:52:38;14.57;;;5.80;;
15915;SDS011;8057;47.830;-3.870;2023-05-29T18:56:48;13.40;;;5.87;;
15915;SDS011;8057;47.830;-3.870;2023-05-29T19:00:57;12.07;;;5.37;;
15915;SDS011;8057;47.830;-3.870;2023-05-29T19:05:27;17.37;;;6.73;;
15915;SDS011;8057;47.830;-3.870;2023-05-29T19:09:36;16.77;;;5.97;;
15915;SDS011;8057;47.830;-3.870;2023-05-29T19:13:47;18.77;;;6.67;;
15915;SDS011;8057;47.830;-3.870;2023-05-29T19:17:56;13.60;;;5.23;;
15915;SDS011;8057;47.830;-3.870;2023-05-29T19:22:07;14.90;;;5.80;;
15915;SDS011;8057;47.830;-3.870;2023-05-29T19:26:16;12.50;;;5.67;;
15915;SDS011;8057;47.830;-3.870;2023-05-29T19:30:27;13.93;;;5.67;;
15915;SDS011;8057;47.830;-3.870;2023-05-29T19:34:36;13.10;;;5.40;;
15915;SDS011;8057;47.830;-3.870;2023-05-29T19:38:48;11.57;;;4.97;;
15915;SDS011;8057;47.830;-3.870;2023-05-29T19:42:57;16.67;;;6.43;;
15915;SDS011;8057;47.830;-3.870;2023-05-29T19:47:06;13.17;;;5.47;;
15915;SDS011;8057;47.830;-3.870;2023-05-29T19:51:15;13.43;;;6.00;;
15915;SDS011;8057;47.830;-3.870;2023-05-29T19:55:26;16.07;;;6.57;;
15915;SDS011;8057;47.830;-3.870;2023-05-29T19:59:35;17.43;;;6.20;;
15915;SDS011;8057;47.830;-3.870;2023-05-29T20:03:44;18.63;;;6.57;;
15915;SDS011;8057;47.830;-3.870;2023-05-29T20:07:54;15.53;;;6.77;;
15915;SDS011;8057;47.830;-3.870;2023-05-29T20:12:08;13.63;;;5.17;;
15915;SDS011;8057;47.830;-3.870;2023-05-29T20:16:17;19.40;;;6.13;;
15915;SDS011;8057;47.830;-3.870;2023-05-29T20:20:26;18.50;;;6.20;;
15915;SDS011;8057;47.830;-3.870;2023-05-29T20:25:16;17.10;;;6.07;;
15915;SDS011;8057;47.830;-3.870;2023-05-29T21:34:44;16.60;;;6.47;;
15915;SDS011;8057;47.830;-3.870;2023-05-29T21:38:53;20.40;;;6.50;;
15915;SDS011;8057;47.830;-3.870;2023-05-29T21:43:03;19.57;;;7.17;;
15915;SDS011;8057;47.830;-3.870;2023-05-29T21:47:12;21.97;;;7.43;;
15915;SDS011;8057;47.830;-3.870;2023-05-29T21:51:23;17.47;;;6.73;;
15915;SDS011;8057;47.830;-3.870;2023-05-29T21:55:32;19.67;;;7.97;;
15915;SDS011;8057;47.830;-3.870;2023-05-29T21:59:41;20.80;;;7.53;;
15915;SDS011;8057;47.830;-3.870;2023-05-29T22:03:50;19.23;;;7.60;;
15915;SDS011;8057;47.830;-3.870;2023-05-29T22:08:01;19.40;;;7.23;;
15915;SDS011;8057;47.830;-3.870;2023-05-29T22:12:10;15.87;;;6.70;;
15915;SDS011;8057;47.830;-3.870;2023-05-29T22:16:19;19.47;;;6.77;;
15915;SDS011;8057;47.830;-3.870;2023-05-29T22:20:28;21.13;;;7.23;;
15915;SDS011;8057;47.830;-3.870;2023-05-29T22:24:39;15.37;;;6.60;;
15915;SDS011;8057;47.830;-3.870;2023-05-29T22:28:51;19.20;;;7.43;;
15915;SDS011;8057;47.830;-3.870;2023-05-29T22:33:00;17.23;;;7.63;;
15915;SDS011;8057;47.830;-3.870;2023-05-29T22:37:09;20.87;;;7.23;;
15915;SDS011;8057;47.830;-3.870;2023-05-29T22:41:20;16.40;;;7.13;;
15915;SDS011;8057;47.830;-3.870;2023-05-29T22:45:29;19.03;;;7.30;;
15915;SDS011;8057;47.830;-3.870;2023-05-29T22:49:39;23.53;;;8.33;;
15915;SDS011;8057;47.830;-3.870;2023-05-29T22:53:48;17.57;;;7.03;;
15915;SDS011;8057;47.830;-3.870;2023-05-29T22:57:58;21.90;;;6.87;;
15915;SDS011;8057;47.830;-3.870;2023-05-29T23:02:07;17.80;;;7.00;;
15915;SDS011;8057;47.830;-3.870;2023-05-29T23:06:16;21.93;;;6.90;;
15915;SDS011;8057;47.830;-3.870;2023-05-29T23:10:26;17.67;;;7.17;;
15915;SDS011;8057;47.830;-3.870;2023-05-29T23:14:37;17.23;;;6.63;;
15915;SDS011;8057;47.830;-3.870;2023-05-29T23:18:46;19.23;;;6.17;;
15915;SDS011;8057;47.830;-3.870;2023-05-29T23:22:55;17.03;;;6.10;;
15915;SDS011;8057;47.830;-3.870;2023-05-29T23:27:04;19.33;;;6.67;;
15915;SDS011;8057;47.830;-3.870;2023-05-29T23:31:15;16.63;;;6.50;;
15915;SDS011;8057;47.830;-3.870;2023-05-29T23:35:24;18.43;;;6.87;;
15915;SDS011;8057;47.830;-3.870;2023-05-29T23:39:33;16.50;;;6.07;;
15915;SDS011;8057;47.830;-3.870;2023-05-29T23:43:43;19.57;;;7.13;;
15915;SDS011;8057;47.830;-3.870;2023-05-29T23:47:53;17.23;;;6.63;;
15915;SDS011;8057;47.830;-3.870;2023-05-29T23:52:02;20.33;;;6.60;;
15915;SDS011;8057;47.830;-3.870;2023-05-29T23:56:12;15.40;;;6.17;;
